CYGQCYYW

Guest
Details From CYGQ - GERALDTON GREENSTONE REGIONAL
To CYYW - ARMSTRONG
Flight Number -
Tags generated
Created
Modified
Stats Distance 82 nm / 152 km
Max Altitude 10,800 ft / 3,292 m
Waypoints 3
Social Downloads 0
Likes 0
Share VATSIM

Download

Looking for another format? Having issues loading an existing format? Contact us
Advertisement - Login to hide

Notes

Basic altitude profile: - Ascent Rate: 2500ft/min - Ascent Speed: 250kts - Cruise Altitude: 35000ft - Cruise Speed: 420kts - Descent Rate: 1500ft/min - Descent Speed: 250kts Options: - Use NATs: yes - Use PACOTS: yes - Use low airways: yes - Use high airways: yes

Route

CYGQ GRAVO CYYW

ID Type Via Altitude Latitude Longitude Leg Dist Tot Dist Heading (true) Name
O CYGQ APT - 0 ft / 0 m 49.77847˚ -86.93931˚ - 0 nm - GERALDTON GREENSTONE REGIONAL
GRAVO FIX - 10,800 ft / 3,292 m 50.00000˚ -87.68333˚ 31 nm 31 nm 295° / 295° -
O CYYW APT - 0 ft / 0 m 50.29340˚ -88.91347˚ 50 nm 82 nm 291° / 290° ARMSTRONG

Altitude Profile

Advertisement - Login to hide

CYGQ

Details ICAO CYGQ (YGQ)
Name GERALDTON GREENSTONE REGIONAL
Region Canada
Timezone America/Toronto (UTC-5.0)
Stats Elevation 1,144 ft / 349 m (AMSL)
Location 49.778472° -86.939307°
Runways 1
Magnetic Variation 6.234° W

METAR

CYGQ 170100Z 00000KT 15SM -SN BKN012 M26/M28 A3017 RMK SC7 SLP272

Decode

TAF

TAF CYGQ 161938Z 1620/1708 VRB03KT P6SM FEW030 FM170000 15005KT P6SM BKN040 TEMPO 1700/1706 4SM -SN BKN020 FM170600 16005KT 4SM -SN OVC012 PROB30 1706/1708 OVC008 RMK NXT FCST BY 170200Z

Decode

Departure Runways

ID Width Length Bearing (true) Bearing (mag) Surface Threshold Offset Overrun Length
08 100 ft / 30 m 5,014 ft / 1,528 m 72.34° 78.57° Asphalt 0 ft / 0 m 0 ft / 0 m
26 100 ft / 30 m 5,014 ft / 1,528 m 252.35° 258.58° Asphalt 0 ft / 0 m 0 ft / 0 m

CYYW

Details ICAO CYYW (YYW)
Name ARMSTRONG
Region Canada
Timezone America/Toronto (UTC-5.0)
Stats Elevation 1,058 ft / 322 m (AMSL)
Location 50.293397° -88.913465°
Runways 2
Magnetic Variation 4.583° W

METAR

CYYW 170100Z AUTO 00000KT 9SM CLR M28/M30 A3015 RMK SLP285

Decode

TAF

Not found

Destination Runways

ID Width Length Bearing (true) Bearing (mag) Surface Threshold Offset Overrun Length
12 100 ft / 30 m 3,991 ft / 1,216 m 117.05° 121.63° Asphalt 0 ft / 0 m 0 ft / 0 m
18 100 ft / 30 m 2,940 ft / 896 m 178.75° 183.33° Asphalt 0 ft / 0 m 0 ft / 0 m
30 100 ft / 30 m 3,991 ft / 1,216 m 297.06° 301.64° Asphalt 0 ft / 0 m 0 ft / 0 m
36 100 ft / 30 m 2,940 ft / 896 m 358.75° 3.33° Asphalt 0 ft / 0 m 0 ft / 0 m